sensor_id;sensor_type;location;lat;lon;timestamp;P1;durP1;ratioP1;P2;durP2;ratioP2
18172;SDS011;9211;48.818;9.312;2022-09-09T00:00:49;4.20;;;1.50;;
18172;SDS011;9211;48.818;9.312;2022-09-09T00:03:23;4.30;;;1.27;;
18172;SDS011;9211;48.818;9.312;2022-09-09T00:05:54;4.88;;;1.30;;
18172;SDS011;9211;48.818;9.312;2022-09-09T00:08:30;5.05;;;1.30;;
18172;SDS011;9211;48.818;9.312;2022-09-09T00:11:05;3.25;;;1.20;;
18172;SDS011;9211;48.818;9.312;2022-09-09T00:13:39;4.10;;;1.15;;
18172;SDS011;9211;48.818;9.312;2022-09-09T00:16:13;3.72;;;1.20;;
18172;SDS011;9211;48.818;9.312;2022-09-09T00:18:48;3.10;;;1.30;;
18172;SDS011;9211;48.818;9.312;2022-09-09T00:21:21;3.05;;;1.30;;
18172;SDS011;9211;48.818;9.312;2022-09-09T00:23:58;3.28;;;1.40;;
18172;SDS011;9211;48.818;9.312;2022-09-09T00:26:35;2.78;;;1.23;;
18172;SDS011;9211;48.818;9.312;2022-09-09T00:29:09;4.77;;;1.50;;
18172;SDS011;9211;48.818;9.312;2022-09-09T00:31:44;3.42;;;1.20;;
18172;SDS011;9211;48.818;9.312;2022-09-09T00:34:13;3.50;;;1.40;;
18172;SDS011;9211;48.818;9.312;2022-09-09T00:36:42;4.28;;;1.35;;
18172;SDS011;9211;48.818;9.312;2022-09-09T00:39:21;3.78;;;1.35;;
18172;SDS011;9211;48.818;9.312;2022-09-09T00:41:57;4.45;;;1.40;;
18172;SDS011;9211;48.818;9.312;2022-09-09T00:44:36;3.25;;;1.20;;
18172;SDS011;9211;48.818;9.312;2022-09-09T00:47:09;3.28;;;1.20;;
18172;SDS011;9211;48.818;9.312;2022-09-09T00:49:49;3.77;;;1.53;;
18172;SDS011;9211;48.818;9.312;2022-09-09T00:52:30;4.03;;;1.30;;
18172;SDS011;9211;48.818;9.312;2022-09-09T00:55:07;5.10;;;1.20;;
18172;SDS011;9211;48.818;9.312;2022-09-09T00:57:40;6.00;;;1.43;;
18172;SDS011;9211;48.818;9.312;2022-09-09T01:00:17;3.80;;;1.33;;
18172;SDS011;9211;48.818;9.312;2022-09-09T01:02:52;2.88;;;1.17;;
18172;SDS011;9211;48.818;9.312;2022-09-09T01:05:35;4.35;;;1.30;;
18172;SDS011;9211;48.818;9.312;2022-09-09T01:08:11;3.60;;;1.38;;
18172;SDS011;9211;48.818;9.312;2022-09-09T01:10:50;2.60;;;1.20;;
18172;SDS011;9211;48.818;9.312;2022-09-09T01:13:23;3.80;;;1.30;;
18172;SDS011;9211;48.818;9.312;2022-09-09T01:15:55;5.40;;;1.38;;
18172;SDS011;9211;48.818;9.312;2022-09-09T01:18:26;4.28;;;1.50;;
18172;SDS011;9211;48.818;9.312;2022-09-09T01:20:58;4.93;;;1.20;;
18172;SDS011;9211;48.818;9.312;2022-09-09T01:23:42;2.53;;;1.27;;
18172;SDS011;9211;48.818;9.312;2022-09-09T01:26:29;5.00;;;1.30;;
18172;SDS011;9211;48.818;9.312;2022-09-09T01:29:02;4.78;;;1.20;;
18172;SDS011;9211;48.818;9.312;2022-09-09T01:31:37;2.87;;;1.20;;
18172;SDS011;9211;48.818;9.312;2022-09-09T01:34:10;3.75;;;1.30;;
18172;SDS011;9211;48.818;9.312;2022-09-09T01:36:40;3.63;;;1.30;;
18172;SDS011;9211;48.818;9.312;2022-09-09T01:39:10;4.93;;;1.33;;
18172;SDS011;9211;48.818;9.312;2022-09-09T01:41:43;4.03;;;1.40;;
18172;SDS011;9211;48.818;9.312;2022-09-09T01:44:12;6.20;;;1.30;;
18172;SDS011;9211;48.818;9.312;2022-09-09T01:46:43;3.55;;;1.30;;
18172;SDS011;9211;48.818;9.312;2022-09-09T01:49:16;3.30;;;1.20;;
18172;SDS011;9211;48.818;9.312;2022-09-09T01:51:45;3.97;;;1.20;;
18172;SDS011;9211;48.818;9.312;2022-09-09T01:54:16;4.80;;;1.63;;
18172;SDS011;9211;48.818;9.312;2022-09-09T01:56:50;2.95;;;1.20;;
18172;SDS011;9211;48.818;9.312;2022-09-09T01:59:33;4.07;;;1.50;;
18172;SDS011;9211;48.818;9.312;2022-09-09T02:02:13;3.45;;;1.50;;
18172;SDS011;9211;48.818;9.312;2022-09-09T02:04:54;4.25;;;1.42;;
18172;SDS011;9211;48.818;9.312;2022-09-09T02:07:30;3.78;;;1.40;;
18172;SDS011;9211;48.818;9.312;2022-09-09T02:10:09;2.97;;;1.30;;
18172;SDS011;9211;48.818;9.312;2022-09-09T02:12:47;5.43;;;1.40;;
18172;SDS011;9211;48.818;9.312;2022-09-09T02:15:20;4.88;;;1.63;;
18172;SDS011;9211;48.818;9.312;2022-09-09T02:17:52;3.50;;;1.40;;
18172;SDS011;9211;48.818;9.312;2022-09-09T02:20:23;4.00;;;1.50;;
18172;SDS011;9211;48.818;9.312;2022-09-09T02:22:57;4.22;;;1.50;;
18172;SDS011;9211;48.818;9.312;2022-09-09T02:25:28;2.45;;;1.23;;
18172;SDS011;9211;48.818;9.312;2022-09-09T02:28:06;4.05;;;1.20;;
18172;SDS011;9211;48.818;9.312;2022-09-09T02:30:35;4.47;;;1.35;;
18172;SDS011;9211;48.818;9.312;2022-09-09T02:33:05;5.30;;;1.50;;
18172;SDS011;9211;48.818;9.312;2022-09-09T02:35:48;3.30;;;1.20;;
18172;SDS011;9211;48.818;9.312;2022-09-09T02:38:18;4.13;;;1.50;;
18172;SDS011;9211;48.818;9.312;2022-09-09T02:40:57;3.97;;;1.40;;
18172;SDS011;9211;48.818;9.312;2022-09-09T02:43:30;4.22;;;1.40;;
18172;SDS011;9211;48.818;9.312;2022-09-09T02:46:00;3.47;;;1.40;;
18172;SDS011;9211;48.818;9.312;2022-09-09T02:48:34;4.30;;;1.30;;
18172;SDS011;9211;48.818;9.312;2022-09-09T02:51:06;3.55;;;1.23;;
18172;SDS011;9211;48.818;9.312;2022-09-09T02:53:39;4.85;;;1.30;;
18172;SDS011;9211;48.818;9.312;2022-09-09T02:56:11;5.22;;;1.25;;
18172;SDS011;9211;48.818;9.312;2022-09-09T02:58:45;3.53;;;1.20;;
18172;SDS011;9211;48.818;9.312;2022-09-09T03:01:12;3.00;;;1.15;;
18172;SDS011;9211;48.818;9.312;2022-09-09T03:03:40;5.40;;;1.50;;
18172;SDS011;9211;48.818;9.312;2022-09-09T03:06:11;3.70;;;1.23;;
18172;SDS011;9211;48.818;9.312;2022-09-09T03:08:39;4.50;;;1.40;;
18172;SDS011;9211;48.818;9.312;2022-09-09T03:11:07;5.18;;;1.30;;
18172;SDS011;9211;48.818;9.312;2022-09-09T03:13:40;4.00;;;1.60;;
18172;SDS011;9211;48.818;9.312;2022-09-09T03:16:11;3.65;;;1.30;;
18172;SDS011;9211;48.818;9.312;2022-09-09T03:18:42;5.20;;;1.42;;
18172;SDS011;9211;48.818;9.312;2022-09-09T03:21:11;4.37;;;1.50;;
18172;SDS011;9211;48.818;9.312;2022-09-09T03:23:39;3.80;;;1.40;;
18172;SDS011;9211;48.818;9.312;2022-09-09T03:26:07;3.08;;;1.33;;
18172;SDS011;9211;48.818;9.312;2022-09-09T03:28:40;3.55;;;1.35;;
18172;SDS011;9211;48.818;9.312;2022-09-09T03:31:07;3.65;;;1.33;;
18172;SDS011;9211;48.818;9.312;2022-09-09T03:33:39;2.60;;;1.45;;
18172;SDS011;9211;48.818;9.312;2022-09-09T03:36:09;3.72;;;1.38;;
18172;SDS011;9211;48.818;9.312;2022-09-09T03:38:37;3.65;;;1.45;;
18172;SDS011;9211;48.818;9.312;2022-09-09T03:41:05;5.88;;;1.27;;
18172;SDS011;9211;48.818;9.312;2022-09-09T03:43:33;4.60;;;1.10;;
18172;SDS011;9211;48.818;9.312;2022-09-09T03:46:00;3.70;;;1.20;;
18172;SDS011;9211;48.818;9.312;2022-09-09T03:48:28;5.35;;;1.10;;
18172;SDS011;9211;48.818;9.312;2022-09-09T03:50:57;3.45;;;1.30;;
18172;SDS011;9211;48.818;9.312;2022-09-09T03:53:26;4.65;;;1.05;;
18172;SDS011;9211;48.818;9.312;2022-09-09T03:55:56;2.95;;;1.08;;
18172;SDS011;9211;48.818;9.312;2022-09-09T03:58:26;3.35;;;1.25;;
18172;SDS011;9211;48.818;9.312;2022-09-09T04:00:59;6.50;;;1.23;;
18172;SDS011;9211;48.818;9.312;2022-09-09T04:03:27;3.35;;;1.20;;
18172;SDS011;9211;48.818;9.312;2022-09-09T04:05:57;5.30;;;1.27;;
18172;SDS011;9211;48.818;9.312;2022-09-09T04:08:27;6.20;;;1.30;;
18172;SDS011;9211;48.818;9.312;2022-09-09T04:10:56;3.78;;;1.27;;
18172;SDS011;9211;48.818;9.312;2022-09-09T04:13:25;5.18;;;1.27;;
18172;SDS011;9211;48.818;9.312;2022-09-09T04:15:53;3.10;;;1.23;;
18172;SDS011;9211;48.818;9.312;2022-09-09T04:18:21;2.60;;;1.05;;
18172;SDS011;9211;48.818;9.312;2022-09-09T04:20:49;6.28;;;1.25;;
18172;SDS011;9211;48.818;9.312;2022-09-09T04:23:21;2.03;;;1.00;;
18172;SDS011;9211;48.818;9.312;2022-09-09T04:25:50;2.85;;;1.23;;
18172;SDS011;9211;48.818;9.312;2022-09-09T04:28:18;5.15;;;1.40;;
18172;SDS011;9211;48.818;9.312;2022-09-09T04:30:47;3.90;;;1.20;;
18172;SDS011;9211;48.818;9.312;2022-09-09T04:33:14;4.85;;;1.20;;
18172;SDS011;9211;48.818;9.312;2022-09-09T04:35:43;4.75;;;1.13;;
18172;SDS011;9211;48.818;9.312;2022-09-09T04:38:13;3.72;;;1.30;;
18172;SDS011;9211;48.818;9.312;2022-09-09T04:40:43;5.68;;;1.33;;
18172;SDS011;9211;48.818;9.312;2022-09-09T04:43:11;2.97;;;1.33;;
18172;SDS011;9211;48.818;9.312;2022-09-09T04:45:39;3.17;;;1.20;;
18172;SDS011;9211;48.818;9.312;2022-09-09T04:48:07;3.53;;;1.20;;
18172;SDS011;9211;48.818;9.312;2022-09-09T04:50:34;4.57;;;1.13;;
18172;SDS011;9211;48.818;9.312;2022-09-09T04:53:02;3.80;;;1.00;;
18172;SDS011;9211;48.818;9.312;2022-09-09T04:55:30;5.47;;;1.00;;
18172;SDS011;9211;48.818;9.312;2022-09-09T04:58:02;2.47;;;1.00;;
18172;SDS011;9211;48.818;9.312;2022-09-09T05:00:30;3.88;;;1.00;;
18172;SDS011;9211;48.818;9.312;2022-09-09T05:02:57;4.50;;;1.00;;
18172;SDS011;9211;48.818;9.312;2022-09-09T05:05:24;5.43;;;1.30;;
18172;SDS011;9211;48.818;9.312;2022-09-09T05:07:51;3.15;;;1.02;;
18172;SDS011;9211;48.818;9.312;2022-09-09T05:10:18;3.60;;;1.10;;
18172;SDS011;9211;48.818;9.312;2022-09-09T05:12:51;4.13;;;1.20;;
18172;SDS011;9211;48.818;9.312;2022-09-09T05:15:21;5.73;;;1.20;;
18172;SDS011;9211;48.818;9.312;2022-09-09T05:17:48;6.75;;;1.20;;
18172;SDS011;9211;48.818;9.312;2022-09-09T05:20:17;5.15;;;1.20;;
18172;SDS011;9211;48.818;9.312;2022-09-09T05:22:44;5.18;;;1.10;;
18172;SDS011;9211;48.818;9.312;2022-09-09T05:25:11;5.18;;;1.30;;
18172;SDS011;9211;48.818;9.312;2022-09-09T05:27:39;4.15;;;1.08;;
18172;SDS011;9211;48.818;9.312;2022-09-09T05:30:06;5.65;;;1.27;;
18172;SDS011;9211;48.818;9.312;2022-09-09T05:32:36;4.30;;;1.17;;
18172;SDS011;9211;48.818;9.312;2022-09-09T05:35:03;4.32;;;1.08;;
18172;SDS011;9211;48.818;9.312;2022-09-09T05:37:30;2.78;;;0.90;;
18172;SDS011;9211;48.818;9.312;2022-09-09T05:39:58;3.03;;;1.03;;
18172;SDS011;9211;48.818;9.312;2022-09-09T05:42:29;2.60;;;1.00;;
18172;SDS011;9211;48.818;9.312;2022-09-09T05:44:58;2.10;;;0.93;;
18172;SDS011;9211;48.818;9.312;2022-09-09T05:47:25;4.72;;;1.30;;
18172;SDS011;9211;48.818;9.312;2022-09-09T05:49:55;4.68;;;1.13;;
18172;SDS011;9211;48.818;9.312;2022-09-09T05:52:22;2.95;;;1.00;;
18172;SDS011;9211;48.818;9.312;2022-09-09T05:54:51;4.43;;;1.05;;
18172;SDS011;9211;48.818;9.312;2022-09-09T05:57:19;4.25;;;1.05;;
18172;SDS011;9211;48.818;9.312;2022-09-09T05:59:46;3.83;;;1.17;;
18172;SDS011;9211;48.818;9.312;2022-09-09T06:02:13;1.90;;;0.90;;
18172;SDS011;9211;48.818;9.312;2022-09-09T06:04:40;4.00;;;1.10;;
18172;SDS011;9211;48.818;9.312;2022-09-09T06:07:08;2.70;;;1.10;;
18172;SDS011;9211;48.818;9.312;2022-09-09T06:09:35;3.65;;;0.95;;
18172;SDS011;9211;48.818;9.312;2022-09-09T06:12:02;3.50;;;1.20;;
18172;SDS011;9211;48.818;9.312;2022-09-09T06:14:33;2.45;;;1.00;;
18172;SDS011;9211;48.818;9.312;2022-09-09T06:17:01;2.70;;;1.02;;
18172;SDS011;9211;48.818;9.312;2022-09-09T06:19:29;3.10;;;1.00;;
18172;SDS011;9211;48.818;9.312;2022-09-09T06:21:57;3.78;;;0.98;;
18172;SDS011;9211;48.818;9.312;2022-09-09T06:24:29;4.32;;;0.90;;
18172;SDS011;9211;48.818;9.312;2022-09-09T06:26:59;3.60;;;0.80;;
18172;SDS011;9211;48.818;9.312;2022-09-09T06:29:30;2.60;;;0.90;;
18172;SDS011;9211;48.818;9.312;2022-09-09T06:31:57;3.67;;;0.90;;
18172;SDS011;9211;48.818;9.312;2022-09-09T06:34:25;2.33;;;0.83;;
18172;SDS011;9211;48.818;9.312;2022-09-09T06:36:55;2.72;;;1.05;;
18172;SDS011;9211;48.818;9.312;2022-09-09T06:39:24;3.05;;;0.98;;
18172;SDS011;9211;48.818;9.312;2022-09-09T06:41:53;3.92;;;0.90;;
18172;SDS011;9211;48.818;9.312;2022-09-09T06:44:39;2.58;;;0.90;;
18172;SDS011;9211;48.818;9.312;2022-09-09T06:47:11;3.05;;;1.00;;
18172;SDS011;9211;48.818;9.312;2022-09-09T06:49:39;2.22;;;0.80;;
18172;SDS011;9211;48.818;9.312;2022-09-09T06:52:09;2.58;;;1.00;;
18172;SDS011;9211;48.818;9.312;2022-09-09T06:54:37;2.45;;;1.00;;
18172;SDS011;9211;48.818;9.312;2022-09-09T06:57:06;3.85;;;1.00;;
18172;SDS011;9211;48.818;9.312;2022-09-09T06:59:34;2.30;;;0.77;;
18172;SDS011;9211;48.818;9.312;2022-09-09T07:02:01;2.50;;;1.00;;
18172;SDS011;9211;48.818;9.312;2022-09-09T07:04:29;3.38;;;0.85;;
18172;SDS011;9211;48.818;9.312;2022-09-09T07:06:57;4.32;;;0.90;;
18172;SDS011;9211;48.818;9.312;2022-09-09T07:09:25;3.20;;;0.90;;
18172;SDS011;9211;48.818;9.312;2022-09-09T07:11:52;2.42;;;1.00;;
18172;SDS011;9211;48.818;9.312;2022-09-09T07:14:23;1.98;;;0.85;;
18172;SDS011;9211;48.818;9.312;2022-09-09T07:16:54;2.17;;;0.80;;
18172;SDS011;9211;48.818;9.312;2022-09-09T07:19:21;3.20;;;1.00;;
18172;SDS011;9211;48.818;9.312;2022-09-09T07:21:51;1.67;;;0.70;;
18172;SDS011;9211;48.818;9.312;2022-09-09T07:24:20;3.10;;;1.00;;
18172;SDS011;9211;48.818;9.312;2022-09-09T07:26:48;3.35;;;1.10;;
18172;SDS011;9211;48.818;9.312;2022-09-09T07:29:17;2.33;;;0.70;;
18172;SDS011;9211;48.818;9.312;2022-09-09T07:31:46;5.60;;;1.00;;
18172;SDS011;9211;48.818;9.312;2022-09-09T07:34:17;5.95;;;1.00;;
18172;SDS011;9211;48.818;9.312;2022-09-09T07:36:44;2.70;;;1.27;;
18172;SDS011;9211;48.818;9.312;2022-09-09T07:39:12;3.77;;;1.00;;
18172;SDS011;9211;48.818;9.312;2022-09-09T07:41:47;2.95;;;0.90;;
18172;SDS011;9211;48.818;9.312;2022-09-09T07:44:19;3.60;;;1.00;;
18172;SDS011;9211;48.818;9.312;2022-09-09T07:46:54;3.08;;;0.93;;
18172;SDS011;9211;48.818;9.312;2022-09-09T07:49:26;3.28;;;0.80;;
18172;SDS011;9211;48.818;9.312;2022-09-09T07:51:53;1.88;;;0.80;;
18172;SDS011;9211;48.818;9.312;2022-09-09T07:54:21;1.67;;;0.83;;
18172;SDS011;9211;48.818;9.312;2022-09-09T07:56:50;3.38;;;1.00;;
18172;SDS011;9211;48.818;9.312;2022-09-09T07:59:19;2.80;;;1.10;;
18172;SDS011;9211;48.818;9.312;2022-09-09T08:01:50;25.85;;;13.18;;
18172;SDS011;9211;48.818;9.312;2022-09-09T08:04:22;58.60;;;28.42;;
18172;SDS011;9211;48.818;9.312;2022-09-09T08:06:52;22.83;;;10.73;;
18172;SDS011;9211;48.818;9.312;2022-09-09T08:09:23;6.63;;;3.03;;
18172;SDS011;9211;48.818;9.312;2022-09-09T08:11:56;3.55;;;1.50;;
18172;SDS011;9211;48.818;9.312;2022-09-09T08:14:25;4.15;;;1.10;;
18172;SDS011;9211;48.818;9.312;2022-09-09T08:16:54;6.43;;;2.50;;
18172;SDS011;9211;48.818;9.312;2022-09-09T08:19:25;12.30;;;5.80;;
18172;SDS011;9211;48.818;9.312;2022-09-09T08:21:54;5.50;;;2.70;;
18172;SDS011;9211;48.818;9.312;2022-09-09T08:24:21;3.22;;;1.10;;
18172;SDS011;9211;48.818;9.312;2022-09-09T08:26:49;3.72;;;1.13;;
18172;SDS011;9211;48.818;9.312;2022-09-09T08:29:21;2.58;;;1.05;;
18172;SDS011;9211;48.818;9.312;2022-09-09T08:31:48;4.35;;;1.10;;
18172;SDS011;9211;48.818;9.312;2022-09-09T08:34:18;4.88;;;1.20;;
18172;SDS011;9211;48.818;9.312;2022-09-09T08:36:49;4.43;;;1.00;;
18172;SDS011;9211;48.818;9.312;2022-09-09T08:39:20;2.53;;;1.08;;
18172;SDS011;9211;48.818;9.312;2022-09-09T08:41:56;3.70;;;1.00;;
18172;SDS011;9211;48.818;9.312;2022-09-09T08:44:48;3.33;;;1.07;;
18172;SDS011;9211;48.818;9.312;2022-09-09T08:47:35;1.95;;;0.98;;
18172;SDS011;9211;48.818;9.312;2022-09-09T08:50:17;3.70;;;1.20;;
18172;SDS011;9211;48.818;9.312;2022-09-09T08:52:54;2.83;;;1.02;;
18172;SDS011;9211;48.818;9.312;2022-09-09T08:55:29;3.00;;;1.00;;
18172;SDS011;9211;48.818;9.312;2022-09-09T08:58:09;4.95;;;1.10;;
18172;SDS011;9211;48.818;9.312;2022-09-09T09:00:41;2.97;;;1.02;;
18172;SDS011;9211;48.818;9.312;2022-09-09T09:03:22;1.70;;;0.90;;
18172;SDS011;9211;48.818;9.312;2022-09-09T09:06:00;3.10;;;1.00;;
18172;SDS011;9211;48.818;9.312;2022-09-09T09:08:35;3.40;;;1.00;;
18172;SDS011;9211;48.818;9.312;2022-09-09T09:11:08;3.03;;;0.70;;
18172;SDS011;9211;48.818;9.312;2022-09-09T09:13:37;3.13;;;0.85;;
18172;SDS011;9211;48.818;9.312;2022-09-09T09:16:14;3.72;;;0.90;;
18172;SDS011;9211;48.818;9.312;2022-09-09T09:18:48;3.40;;;0.80;;
18172;SDS011;9211;48.818;9.312;2022-09-09T09:21:18;3.05;;;0.90;;
18172;SDS011;9211;48.818;9.312;2022-09-09T09:23:54;4.13;;;0.75;;
18172;SDS011;9211;48.818;9.312;2022-09-09T09:26:26;2.35;;;0.77;;
18172;SDS011;9211;48.818;9.312;2022-09-09T09:28:57;2.17;;;0.60;;
18172;SDS011;9211;48.818;9.312;2022-09-09T09:31:25;3.13;;;0.90;;
18172;SDS011;9211;48.818;9.312;2022-09-09T09:33:53;2.50;;;0.60;;
18172;SDS011;9211;48.818;9.312;2022-09-09T09:36:24;3.47;;;0.77;;
18172;SDS011;9211;48.818;9.312;2022-09-09T09:39:04;3.40;;;0.70;;
18172;SDS011;9211;48.818;9.312;2022-09-09T09:41:33;3.58;;;0.60;;
18172;SDS011;9211;48.818;9.312;2022-09-09T09:44:03;3.50;;;0.85;;
18172;SDS011;9211;48.818;9.312;2022-09-09T09:46:32;3.88;;;0.57;;
18172;SDS011;9211;48.818;9.312;2022-09-09T09:49:08;1.75;;;0.40;;
18172;SDS011;9211;48.818;9.312;2022-09-09T09:51:38;2.22;;;0.50;;
18172;SDS011;9211;48.818;9.312;2022-09-09T09:54:09;1.92;;;0.50;;
18172;SDS011;9211;48.818;9.312;2022-09-09T09:56:49;2.17;;;0.50;;
18172;SDS011;9211;48.818;9.312;2022-09-09T09:59:32;1.40;;;0.40;;
18172;SDS011;9211;48.818;9.312;2022-09-09T10:02:13;1.40;;;0.45;;
18172;SDS011;9211;48.818;9.312;2022-09-09T10:04:44;1.75;;;0.45;;
18172;SDS011;9211;48.818;9.312;2022-09-09T10:07:12;1.05;;;0.52;;
18172;SDS011;9211;48.818;9.312;2022-09-09T10:09:43;2.63;;;0.50;;
18172;SDS011;9211;48.818;9.312;2022-09-09T10:12:14;4.50;;;1.98;;
18172;SDS011;9211;48.818;9.312;2022-09-09T10:14:51;8.38;;;3.58;;
18172;SDS011;9211;48.818;9.312;2022-09-09T10:17:26;9.50;;;4.13;;
18172;SDS011;9211;48.818;9.312;2022-09-09T10:20:10;8.93;;;3.83;;
18172;SDS011;9211;48.818;9.312;2022-09-09T10:22:49;2.78;;;0.80;;
18172;SDS011;9211;48.818;9.312;2022-09-09T10:25:21;2.73;;;0.67;;
18172;SDS011;9211;48.818;9.312;2022-09-09T10:28:10;1.95;;;0.50;;
18172;SDS011;9211;48.818;9.312;2022-09-09T10:30:54;2.17;;;0.50;;
18172;SDS011;9211;48.818;9.312;2022-09-09T10:33:31;2.72;;;0.70;;
18172;SDS011;9211;48.818;9.312;2022-09-09T10:36:06;2.85;;;0.70;;
18172;SDS011;9211;48.818;9.312;2022-09-09T10:38:39;2.55;;;0.60;;
18172;SDS011;9211;48.818;9.312;2022-09-09T10:41:15;2.40;;;0.70;;
18172;SDS011;9211;48.818;9.312;2022-09-09T10:46:43;1.52;;;0.70;;
18172;SDS011;9211;48.818;9.312;2022-09-09T10:49:21;3.65;;;0.80;;
18172;SDS011;9211;48.818;9.312;2022-09-09T10:51:57;3.35;;;0.82;;
18172;SDS011;9211;48.818;9.312;2022-09-09T10:54:35;2.00;;;0.60;;
18172;SDS011;9211;48.818;9.312;2022-09-09T10:57:15;2.88;;;0.73;;
18172;SDS011;9211;48.818;9.312;2022-09-09T10:59:50;4.75;;;0.80;;
18172;SDS011;9211;48.818;9.312;2022-09-09T11:02:24;3.28;;;0.63;;
18172;SDS011;9211;48.818;9.312;2022-09-09T11:04:54;1.90;;;0.70;;
18172;SDS011;9211;48.818;9.312;2022-09-09T11:07:27;2.15;;;0.70;;
18172;SDS011;9211;48.818;9.312;2022-09-09T11:10:01;2.58;;;0.63;;
18172;SDS011;9211;48.818;9.312;2022-09-09T11:12:33;3.00;;;0.70;;
18172;SDS011;9211;48.818;9.312;2022-09-09T11:15:04;1.67;;;0.60;;
18172;SDS011;9211;48.818;9.312;2022-09-09T11:17:39;3.70;;;1.13;;
18172;SDS011;9211;48.818;9.312;2022-09-09T11:20:12;1.70;;;0.70;;
18172;SDS011;9211;48.818;9.312;2022-09-09T11:22:42;2.90;;;0.75;;
18172;SDS011;9211;48.818;9.312;2022-09-09T11:25:15;2.28;;;0.65;;
18172;SDS011;9211;48.818;9.312;2022-09-09T11:27:50;1.98;;;0.70;;
18172;SDS011;9211;48.818;9.312;2022-09-09T11:30:27;2.28;;;0.60;;
18172;SDS011;9211;48.818;9.312;2022-09-09T11:33:13;3.53;;;0.83;;
18172;SDS011;9211;48.818;9.312;2022-09-09T11:36:01;2.05;;;0.65;;
18172;SDS011;9211;48.818;9.312;2022-09-09T11:38:40;3.80;;;0.77;;
18172;SDS011;9211;48.818;9.312;2022-09-09T11:41:11;2.63;;;0.57;;
18172;SDS011;9211;48.818;9.312;2022-09-09T11:43:42;1.50;;;0.50;;
18172;SDS011;9211;48.818;9.312;2022-09-09T11:46:10;2.80;;;0.60;;
18172;SDS011;9211;48.818;9.312;2022-09-09T11:48:41;3.88;;;0.90;;
18172;SDS011;9211;48.818;9.312;2022-09-09T11:51:11;2.63;;;0.60;;
18172;SDS011;9211;48.818;9.312;2022-09-09T11:53:49;3.83;;;0.80;;
18172;SDS011;9211;48.818;9.312;2022-09-09T11:56:24;2.63;;;0.65;;
18172;SDS011;9211;48.818;9.312;2022-09-09T11:58:56;1.83;;;0.45;;
18172;SDS011;9211;48.818;9.312;2022-09-09T12:04:16;3.55;;;0.68;;
18172;SDS011;9211;48.818;9.312;2022-09-09T12:06:53;2.15;;;0.50;;
18172;SDS011;9211;48.818;9.312;2022-09-09T12:09:25;0.85;;;0.30;;
18172;SDS011;9211;48.818;9.312;2022-09-09T12:14:58;1.95;;;0.38;;
18172;SDS011;9211;48.818;9.312;2022-09-09T12:17:46;2.05;;;0.40;;
18172;SDS011;9211;48.818;9.312;2022-09-09T12:20:16;0.82;;;0.30;;
18172;SDS011;9211;48.818;9.312;2022-09-09T12:23:04;1.73;;;0.40;;
18172;SDS011;9211;48.818;9.312;2022-09-09T12:25:53;0.65;;;0.30;;
18172;SDS011;9211;48.818;9.312;2022-09-09T12:28:27;0.70;;;0.30;;
18172;SDS011;9211;48.818;9.312;2022-09-09T12:31:10;0.80;;;0.20;;
18172;SDS011;9211;48.818;9.312;2022-09-09T12:33:43;1.52;;;0.28;;
18172;SDS011;9211;48.818;9.312;2022-09-09T12:36:13;0.57;;;0.20;;
18172;SDS011;9211;48.818;9.312;2022-09-09T12:38:43;1.95;;;0.30;;
18172;SDS011;9211;48.818;9.312;2022-09-09T12:41:17;0.52;;;0.20;;
18172;SDS011;9211;48.818;9.312;2022-09-09T12:43:46;0.98;;;0.25;;
18172;SDS011;9211;48.818;9.312;2022-09-09T12:46:18;1.63;;;0.33;;
18172;SDS011;9211;48.818;9.312;2022-09-09T12:48:51;1.17;;;0.32;;
18172;SDS011;9211;48.818;9.312;2022-09-09T12:51:21;1.13;;;0.40;;
18172;SDS011;9211;48.818;9.312;2022-09-09T12:53:52;0.52;;;0.22;;
18172;SDS011;9211;48.818;9.312;2022-09-09T12:56:20;0.90;;;0.30;;
18172;SDS011;9211;48.818;9.312;2022-09-09T12:58:50;0.68;;;0.28;;
18172;SDS011;9211;48.818;9.312;2022-09-09T13:01:22;1.83;;;0.40;;
18172;SDS011;9211;48.818;9.312;2022-09-09T13:03:50;1.55;;;0.30;;
18172;SDS011;9211;48.818;9.312;2022-09-09T13:06:19;1.63;;;0.30;;
18172;SDS011;9211;48.818;9.312;2022-09-09T13:08:48;1.65;;;0.40;;
18172;SDS011;9211;48.818;9.312;2022-09-09T13:11:17;1.17;;;0.32;;
18172;SDS011;9211;48.818;9.312;2022-09-09T13:13:50;1.30;;;0.30;;
18172;SDS011;9211;48.818;9.312;2022-09-09T13:16:19;1.20;;;0.50;;
18172;SDS011;9211;48.818;9.312;2022-09-09T13:18:49;1.77;;;0.40;;
18172;SDS011;9211;48.818;9.312;2022-09-09T13:21:17;3.25;;;0.60;;
18172;SDS011;9211;48.818;9.312;2022-09-09T13:23:48;1.40;;;0.30;;
18172;SDS011;9211;48.818;9.312;2022-09-09T13:26:20;1.33;;;0.30;;
18172;SDS011;9211;48.818;9.312;2022-09-09T13:28:50;1.33;;;0.40;;
18172;SDS011;9211;48.818;9.312;2022-09-09T13:31:20;1.87;;;0.30;;
18172;SDS011;9211;48.818;9.312;2022-09-09T13:33:52;1.77;;;0.40;;
18172;SDS011;9211;48.818;9.312;2022-09-09T13:36:27;2.15;;;0.45;;
18172;SDS011;9211;48.818;9.312;2022-09-09T13:38:55;1.67;;;0.40;;
18172;SDS011;9211;48.818;9.312;2022-09-09T13:41:25;0.88;;;0.40;;
18172;SDS011;9211;48.818;9.312;2022-09-09T13:43:56;3.50;;;0.57;;
18172;SDS011;9211;48.818;9.312;2022-09-09T13:46:30;2.95;;;0.60;;
18172;SDS011;9211;48.818;9.312;2022-09-09T13:49:00;1.50;;;0.40;;
18172;SDS011;9211;48.818;9.312;2022-09-09T13:51:30;2.50;;;0.50;;
18172;SDS011;9211;48.818;9.312;2022-09-09T13:54:00;2.35;;;0.40;;
18172;SDS011;9211;48.818;9.312;2022-09-09T13:56:27;1.50;;;0.40;;
18172;SDS011;9211;48.818;9.312;2022-09-09T13:58:54;1.98;;;0.43;;
18172;SDS011;9211;48.818;9.312;2022-09-09T14:01:22;1.27;;;0.43;;
18172;SDS011;9211;48.818;9.312;2022-09-09T14:03:51;2.47;;;0.52;;
18172;SDS011;9211;48.818;9.312;2022-09-09T14:06:18;1.80;;;0.40;;
18172;SDS011;9211;48.818;9.312;2022-09-09T14:08:47;1.67;;;0.40;;
18172;SDS011;9211;48.818;9.312;2022-09-09T14:11:15;2.50;;;0.50;;
18172;SDS011;9211;48.818;9.312;2022-09-09T14:13:42;1.93;;;0.40;;
18172;SDS011;9211;48.818;9.312;2022-09-09T14:16:09;1.15;;;0.38;;
18172;SDS011;9211;48.818;9.312;2022-09-09T14:18:36;0.88;;;0.30;;
18172;SDS011;9211;48.818;9.312;2022-09-09T14:21:05;0.80;;;0.30;;
18172;SDS011;9211;48.818;9.312;2022-09-09T14:23:33;1.98;;;0.47;;
18172;SDS011;9211;48.818;9.312;2022-09-09T14:26:00;2.00;;;0.50;;
18172;SDS011;9211;48.818;9.312;2022-09-09T14:28:27;2.35;;;0.32;;
18172;SDS011;9211;48.818;9.312;2022-09-09T14:30:54;2.70;;;0.40;;
18172;SDS011;9211;48.818;9.312;2022-09-09T14:33:24;2.42;;;0.30;;
18172;SDS011;9211;48.818;9.312;2022-09-09T14:35:55;1.85;;;0.50;;
18172;SDS011;9211;48.818;9.312;2022-09-09T14:38:24;1.25;;;0.40;;
18172;SDS011;9211;48.818;9.312;2022-09-09T14:40:50;2.08;;;0.35;;
18172;SDS011;9211;48.818;9.312;2022-09-09T14:43:17;1.27;;;0.32;;
18172;SDS011;9211;48.818;9.312;2022-09-09T14:45:45;1.90;;;0.40;;
18172;SDS011;9211;48.818;9.312;2022-09-09T14:48:13;2.35;;;0.50;;
18172;SDS011;9211;48.818;9.312;2022-09-09T14:50:40;2.28;;;0.40;;
18172;SDS011;9211;48.818;9.312;2022-09-09T14:53:07;2.78;;;0.40;;
18172;SDS011;9211;48.818;9.312;2022-09-09T14:55:36;1.45;;;0.38;;
18172;SDS011;9211;48.818;9.312;2022-09-09T14:58:04;0.90;;;0.22;;
18172;SDS011;9211;48.818;9.312;2022-09-09T15:00:31;1.30;;;0.40;;
18172;SDS011;9211;48.818;9.312;2022-09-09T15:02:58;2.20;;;0.57;;
18172;SDS011;9211;48.818;9.312;2022-09-09T15:05:25;2.03;;;0.32;;
18172;SDS011;9211;48.818;9.312;2022-09-09T15:07:53;1.73;;;0.50;;
18172;SDS011;9211;48.818;9.312;2022-09-09T15:10:20;1.75;;;0.40;;
18172;SDS011;9211;48.818;9.312;2022-09-09T15:12:48;2.40;;;0.30;;
18172;SDS011;9211;48.818;9.312;2022-09-09T15:15:15;1.80;;;0.40;;
18172;SDS011;9211;48.818;9.312;2022-09-09T15:17:42;0.93;;;0.30;;
18172;SDS011;9211;48.818;9.312;2022-09-09T15:20:09;1.70;;;0.70;;
18172;SDS011;9211;48.818;9.312;2022-09-09T15:22:36;3.20;;;0.40;;
18172;SDS011;9211;48.818;9.312;2022-09-09T15:25:03;2.10;;;0.70;;
18172;SDS011;9211;48.818;9.312;2022-09-09T15:27:32;3.15;;;1.10;;
18172;SDS011;9211;48.818;9.312;2022-09-09T15:30:01;1.80;;;0.43;;
18172;SDS011;9211;48.818;9.312;2022-09-09T15:32:28;1.57;;;0.30;;
18172;SDS011;9211;48.818;9.312;2022-09-09T15:34:55;1.38;;;0.43;;